^^
Grace C. Lehan Memorial Weather Station Historical Data
Daily Summary for April 6, 2021 Units:  English    Metric   Both
Daily Weekly Monthly Yearly
  High: Low: Average:
Temperature: 95.2 °F 67.8 °F 83.6 °F
Dew Point: 69.4 °F 62.5 °F 66.1 °F
Humidity: 85% 37.1% 58%
Wind Speed: 5.5mph 0mph 0.8mph
Wind Gust: 14mph - -
Wind- - WSW
Pressure: 30.01 in 29.89 in -
Precipitation: 0.00 in    
 
 
Tabular Data for April 6, 2021
Time Temperature Dew Point Pressure Wind Wind Speed Wind Gust Humidity Rainfall Rate (Hourly) solar
00:04 75.8 °F 64.4 °F 29.89 in Calm     67.6% 0.00 in 0 W/m2
00:09 75.7 °F 64.4 °F 29.89 in WNW 0.3 mph 3 mph 68% 0.00 in 0 W/m2
00:14 75.5 °F 64.2 °F 29.89 in Calm   3 mph 68% 0.00 in 0 W/m2
00:19 75.4 °F 64.1 °F 29.89 in Calm   3 mph 68% 0.00 in 0 W/m2
00:24 75.3 °F 64 °F 29.89 in Calm   3 mph 68% 0.00 in 0 W/m2
00:29 75.1 °F 63.5 °F 29.89 in Calm   3 mph 67.3% 0.00 in 0 W/m2
00:34 75 °F 63.8 °F 29.89 in Calm   3 mph 68% 0.00 in 0 W/m2
00:39 75 °F 63.8 °F 29.89 in Calm     68.2% 0.00 in 0 W/m2
00:44 74.8 °F 64.1 °F 29.90 in Calm     69.2% 0.00 in 0 W/m2
00:49 74.7 °F 63.8 °F 29.89 in Calm     69% 0.00 in 0 W/m2
00:54 74.5 °F 63.8 °F 29.90 in Calm     69.3% 0.00 in 0 W/m2
00:59 74.3 °F 64.3 °F 29.90 in Calm   1 mph 70.9% 0.00 in 0 W/m2
01:04 74 °F 64.4 °F 29.89 in Calm   1 mph 72% 0.00 in 0 W/m2
01:09 73.7 °F 64.1 °F 29.90 in Calm     72% 0.00 in 0 W/m2
01:14 73.5 °F 63.9 °F 29.90 in Calm     72% 0.00 in 0 W/m2
01:19 73.3 °F 63.7 °F 29.90 in Calm     72% 0.00 in 0 W/m2
01:24 73.1 °F 63.6 °F 29.90 in Calm     72% 0.00 in 0 W/m2
01:29 73 °F 63.7 °F 29.90 in Calm     72.6% 0.00 in 0 W/m2
01:34 73 °F 63.8 °F 29.90 in Calm     73% 0.00 in 0 W/m2
01:39 72.8 °F 64 °F 29.90 in Calm     73.9% 0.00 in 0 W/m2
01:44 72.8 °F 64.2 °F 29.90 in Calm     74.5% 0.00 in 0 W/m2
01:49 72.8 °F 64 °F 29.90 in Calm     74% 0.00 in 0 W/m2
01:54 72.8 °F 64 °F 29.90 in Calm     73.9% 0.00 in 0 W/m2
01:59 72.8 °F 63.5 °F 29.90 in Calm     72.6% 0.00 in 0 W/m2
02:04 72.9 °F 63.4 °F 29.90 in Calm     72% 0.00 in 0 W/m2
02:09 73 °F 63.5 °F 29.90 in Calm     72% 0.00 in 0 W/m2
02:14 73.1 °F 63.5 °F 29.89 in Calm     72% 0.00 in 0 W/m2
02:19 73 °F 63.5 °F 29.89 in Calm     72% 0.00 in 0 W/m2
02:24 73 °F 63.4 °F 29.89 in Calm     72% 0.00 in 0 W/m2
02:29 72.9 °F 63.7 °F 29.89 in Calm     72.9% 0.00 in 0 W/m2
02:34 72.7 °F 64.1 °F 29.89 in Calm     74.4% 0.00 in 0 W/m2
02:39 72.3 °F 64 °F 29.89 in Calm     75% 0.00 in 0 W/m2
02:44 72.1 °F 63.7 °F 29.89 in Calm     75% 0.00 in 0 W/m2
02:49 71.9 °F 64 °F 29.89 in Calm     76% 0.00 in 0 W/m2
02:54 71.7 °F 63.7 °F 29.90 in Calm     76% 0.00 in 0 W/m2
02:59 71.4 °F 63.8 °F 29.90 in Calm     77% 0.00 in 0 W/m2
03:04 71.2 °F 63.6 °F 29.91 in Calm     77% 0.00 in 0 W/m2
03:09 71 °F 63.8 °F 29.91 in Calm     77.9% 0.00 in 0 W/m2
03:14 70.9 °F 63.7 °F 29.91 in NNE 1.2 mph 6 mph 77.8% 0.00 in 0 W/m2
03:19 71 °F 63.7 °F 29.91 in Calm   6 mph 77.7% 0.00 in 0 W/m2
03:24 71 °F 63.7 °F 29.91 in Calm   6 mph 77.7% 0.00 in 0 W/m2
03:29 71.1 °F 63.5 °F 29.91 in Calm   6 mph 77% 0.00 in 0 W/m2
03:34 71.1 °F 63.5 °F 29.92 in Calm   6 mph 77% 0.00 in 0 W/m2
03:39 71.1 °F 63.4 °F 29.92 in Calm     76.7% 0.00 in 0 W/m2
03:44 71.1 °F 63.2 °F 29.92 in Calm     76.1% 0.00 in 0 W/m2
03:49 71.2 °F 63.6 °F 29.92 in Calm     77% 0.00 in 0 W/m2
03:54 71.1 °F 63.5 °F 29.92 in Calm     77% 0.00 in 0 W/m2
03:59 71 °F 63.4 °F 29.92 in Calm     77% 0.00 in 0 W/m2
04:04 70.8 °F 63.2 °F 29.92 in Calm     77% 0.00 in 0 W/m2
04:09 70.7 °F 63.2 °F 29.92 in Calm     77.2% 0.00 in 0 W/m2
04:14 70.5 °F 63 °F 29.92 in Calm     77% 0.00 in 0 W/m2
04:19 70.4 °F 62.8 °F 29.92 in Calm     77% 0.00 in 0 W/m2
04:24 70.3 °F 63 °F 29.92 in Calm     77.7% 0.00 in 0 W/m2
04:29 70.2 °F 63 °F 29.92 in Calm     78% 0.00 in 0 W/m2
04:34 70.1 °F 62.9 °F 29.93 in Calm     78% 0.00 in 0 W/m2
04:39 69.9 °F 62.8 °F 29.93 in Calm     78% 0.00 in 0 W/m2
04:44 69.8 °F 62.9 °F 29.93 in Calm     78.6% 0.00 in 0 W/m2
04:49 69.6 °F 63.1 °F 29.94 in Calm     79.8% 0.00 in 0 W/m2
04:54 69.3 °F 62.9 °F 29.94 in Calm     80% 0.00 in 0 W/m2
04:59 69.1 °F 62.8 °F 29.94 in Calm     80.5% 0.00 in 0 W/m2
05:04 68.9 °F 62.8 °F 29.94 in Calm     81% 0.00 in 0 W/m2
05:09 68.7 °F 62.7 °F 29.94 in Calm     81% 0.00 in 0 W/m2
05:14 68.6 °F 62.5 °F 29.94 in Calm     81% 0.00 in 0 W/m2
05:19 68.5 °F 62.5 °F 29.94 in Calm     81% 0.00 in 0 W/m2
05:24 68.5 °F 62.7 °F 29.95 in Calm     81.9% 0.00 in 5 W/m2
05:29 68.3 °F 62.6 °F 29.95 in Calm     82% 0.00 in 7 W/m2
05:34 68.3 °F 62.8 °F 29.95 in Calm     82.6% 0.00 in 9 W/m2
05:39 68.2 °F 62.8 °F 29.95 in Calm     83% 0.00 in 12 W/m2
05:44 68.2 °F 62.8 °F 29.95 in Calm     83% 0.00 in 14 W/m2
05:49 68.1 °F 62.7 °F 29.95 in Calm     83% 0.00 in 18 W/m2
05:54 68 °F 62.9 °F 29.96 in Calm     84% 0.00 in 21 W/m2
05:59 67.8 °F 62.9 °F 29.96 in Calm     84.1% 0.00 in 23 W/m2
06:04 67.8 °F 63.1 °F 29.96 in Calm     85% 0.00 in 26 W/m2
06:09 67.8 °F 63.2 °F 29.96 in Calm   1 mph 85% 0.00 in 28 W/m2
06:14 67.9 °F 63.1 °F 29.97 in Calm   1 mph 84.6% 0.00 in 30 W/m2
06:19 68.2 °F 63.2 °F 29.97 in Calm   1 mph 84% 0.00 in 33 W/m2
06:24 68.5 °F 63.2 °F 29.97 in Calm   1 mph 83% 0.00 in 39 W/m2
06:29 69 °F 63.4 °F 29.97 in Calm   1 mph 82.5% 0.00 in 46 W/m2
06:34 69.4 °F 63.6 °F 29.98 in Calm   1 mph 82% 0.00 in 53 W/m2
06:39 69.9 °F 64.1 °F 29.98 in Calm     82% 0.00 in 54 W/m2
06:44 70.5 °F 64.5 °F 29.98 in Calm     81.3% 0.00 in 60 W/m2
06:49 71.3 °F 65.1 °F 29.98 in Calm     80.8% 0.00 in 63 W/m2
06:54 72.2 °F 65.3 °F 29.98 in Calm     79% 0.00 in 65 W/m2
06:59 73.1 °F 65.8 °F 29.98 in Calm     77.7% 0.00 in 69 W/m2
07:04 74.1 °F 66.3 °F 29.98 in Calm     76.6% 0.00 in 70 W/m2
07:09 75.1 °F 66.6 °F 29.98 in Calm     75% 0.00 in 72 W/m2
07:14 76.1 °F 66.8 °F 29.99 in Calm     72.8% 0.00 in 76 W/m2
07:19 77 °F 66.9 °F 29.99 in Calm     71.1% 0.00 in 104 W/m2
07:24 77.8 °F 67.1 °F 29.99 in Calm     69.8% 0.00 in 295 W/m2
07:29 78.3 °F 66.9 °F 29.99 in Calm     68% 0.00 in 315 W/m2
07:34 78.8 °F 67 °F 29.99 in Calm     67.1% 0.00 in 330 W/m2
07:39 79.4 °F 67.3 °F 29.99 in Calm     66.7% 0.00 in 345 W/m2
07:44 79.9 °F 67.5 °F 29.99 in Calm     66% 0.00 in 357 W/m2
07:49 80.4 °F 67.1 °F 30.00 in Calm     64.1% 0.00 in 373 W/m2
07:54 80.7 °F 67.2 °F 30.00 in Calm     63.5% 0.00 in 388 W/m2
07:59 81.1 °F 67.7 °F 30.00 in Calm     63.8% 0.00 in 408 W/m2
08:09 82 °F 67.4 °F 30.00 in Calm     61.4% 0.00 in 441 W/m2
08:14 82.4 °F 67.2 °F 30.00 in Calm     60.1% 0.00 in 459 W/m2
08:19 82.8 °F 67 °F 30.00 in Calm     58.8% 0.00 in 473 W/m2
08:24 83.2 °F 67.5 °F 30.00 in Calm     59.2% 0.00 in 489 W/m2
08:29 83.5 °F 68.6 °F 30.00 in Calm     60.8% 0.00 in 506 W/m2
08:34 84 °F 68.6 °F 30.00 in Calm     59.9% 0.00 in 524 W/m2
08:39 84.3 °F 68.3 °F 30.00 in Calm     58.6% 0.00 in 541 W/m2
08:44 84.7 °F 68.2 °F 30.00 in Calm     57.9% 0.00 in 555 W/m2
08:49 85.1 °F 68.3 °F 30.00 in Calm     57.3% 0.00 in 571 W/m2
08:54 85.5 °F 68.4 °F 30.00 in Calm     56.7% 0.00 in 585 W/m2
08:59 86 °F 68.6 °F 30.00 in Calm     56.2% 0.00 in 599 W/m2
09:04 86.5 °F 68.3 °F 30.00 in Calm   1 mph 54.8% 0.00 in 615 W/m2
09:09 86.9 °F 68 °F 30.00 in Calm   1 mph 53.6% 0.00 in 629 W/m2
09:14 87.1 °F 68.1 °F 30.00 in West 0.4 mph 6 mph 53.3% 0.00 in 643 W/m2
09:19 87.5 °F 68.1 °F 30.00 in Calm   6 mph 52.6% 0.00 in 659 W/m2
09:24 88 °F 69.1 °F 30.00 in West 0.1 mph 6 mph 53.7% 0.00 in 673 W/m2
09:29 88.5 °F 69 °F 30.00 in Calm   6 mph 52.7% 0.00 in 686 W/m2
09:34 88.9 °F 68.8 °F 30.00 in West 0.2 mph 6 mph 51.6% 0.00 in 700 W/m2
09:39 89.4 °F 68 °F 30.00 in West 0.1 mph 3 mph 49.6% 0.00 in 715 W/m2
09:44 89.6 °F 67.8 °F 30.00 in West 0.4 mph 5 mph 48.7% 0.00 in 728 W/m2
09:49 89.7 °F 67.1 °F 30.00 in Calm   5 mph 47.5% 0.00 in 740 W/m2
09:54 89.9 °F 66.8 °F 30.00 in WSW 0.2 mph 5 mph 46.7% 0.00 in 754 W/m2
09:59 90.1 °F 66.8 °F 30.00 in WSW 0.6 mph 6 mph 46.3% 0.00 in 770 W/m2
10:04 90.3 °F 66.8 °F 29.99 in WSW 1.1 mph 6 mph 46.1% 0.00 in 779 W/m2
10:09 90.5 °F 67.1 °F 29.99 in WSW 1.1 mph 9 mph 46.2% 0.00 in 789 W/m2
10:14 91 °F 67.6 °F 29.99 in WSW 1.5 mph 9 mph 46.4% 0.00 in 802 W/m2
10:19 91.2 °F 66.7 °F 29.99 in WSW 0.8 mph 9 mph 44.6% 0.00 in 814 W/m2
10:24 91.3 °F 67.4 °F 29.99 in WSW 0.2 mph 9 mph 45.7% 0.00 in 826 W/m2
10:29 91.6 °F 67.9 °F 29.99 in Calm   9 mph 46.1% 0.00 in 835 W/m2
10:34 92 °F 68.1 °F 29.99 in West 0.3 mph 9 mph 45.8% 0.00 in 847 W/m2
10:39 92.5 °F 68.6 °F 29.99 in WSW 1 mph 6 mph 45.8% 0.00 in 853 W/m2
10:44 92.6 °F 67.8 °F 29.99 in WSW 1.1 mph 6 mph 44.3% 0.00 in 861 W/m2
10:49 92.8 °F 69.1 °F 29.99 in WSW 1.4 mph 6 mph 46.2% 0.00 in 867 W/m2
10:54 92.9 °F 68.2 °F 29.99 in SW 1.3 mph 6 mph 44.6% 0.00 in 877 W/m2
10:59 92.9 °F 68 °F 29.99 in SW 1 mph 6 mph 44.3% 0.00 in 889 W/m2
11:04 93 °F 68.7 °F 29.99 in WSW 1.8 mph 10 mph 45.2% 0.00 in 898 W/m2
11:09 93 °F 68 °F 29.99 in SW 0.6 mph 10 mph 44.3% 0.00 in 909 W/m2
11:14 92.9 °F 68.3 °F 29.99 in SW 1.5 mph 10 mph 44.6% 0.00 in 909 W/m2
11:19 92.7 °F 67.9 °F 29.99 in SW 0.4 mph 10 mph 44.3% 0.00 in 865 W/m2
11:24 92.5 °F 69 °F 29.98 in SSW 1.3 mph 10 mph 46.3% 0.00 in 889 W/m2
11:29 92.6 °F 68.6 °F 29.99 in SSW 1 mph 10 mph 45.7% 0.00 in 912 W/m2
11:34 92.7 °F 68.3 °F 29.99 in WSW 2.5 mph 10 mph 45.1% 0.00 in 926 W/m2
11:39 93 °F 68.3 °F 29.99 in WSW 1.3 mph 10 mph 44.6% 0.00 in 928 W/m2
11:44 93.4 °F 67.9 °F 29.99 in WSW 1.3 mph 10 mph 43.6% 0.00 in 946 W/m2
11:49 93.5 °F 68 °F 29.98 in WSW 1.4 mph 10 mph 43.5% 0.00 in 928 W/m2
11:54 93.6 °F 68.4 °F 29.98 in WNW 2 mph 10 mph 44% 0.00 in 960 W/m2
11:59 93.9 °F 67.6 °F 29.98 in West 1.6 mph 10 mph 42.5% 0.00 in 969 W/m2
12:09 94.1 °F 67.9 °F 29.98 in West 1.9 mph 7 mph 42.5% 0.00 in 919 W/m2
12:14 94.2 °F 67.8 °F 29.98 in WSW 2.5 mph 10 mph 42.3% 0.00 in 919 W/m2
12:19 94.2 °F 67.8 °F 29.98 in West 2.1 mph 10 mph 42.3% 0.00 in 953 W/m2
12:24 94.2 °F 68.2 °F 29.98 in WSW 0.9 mph 10 mph 42.8% 0.00 in 963 W/m2
12:29 94 °F 67.6 °F 29.98 in SW 2.6 mph 10 mph 42.2% 0.00 in 963 W/m2
12:34 93.9 °F 67.9 °F 29.98 in WSW 2.6 mph 10 mph 42.8% 0.00 in 951 W/m2
12:39 94 °F 66.3 °F 29.98 in West 2.7 mph 7 mph 40.4% 0.00 in 988 W/m2
12:44 93.7 °F 66.6 °F 29.98 in WSW 3.5 mph 13 mph 41.2% 0.00 in 984 W/m2
12:49 93.6 °F 67.6 °F 29.98 in West 1.9 mph 13 mph 42.8% 0.00 in 969 W/m2
12:54 93.8 °F 67.9 °F 29.97 in West 2.7 mph 13 mph 43% 0.00 in 958 W/m2
12:59 93.9 °F 67.5 °F 29.97 in WSW 2.8 mph 13 mph 42.3% 0.00 in 981 W/m2
13:04 94 °F 67.2 °F 29.97 in SW 2.2 mph 13 mph 41.6% 0.00 in 977 W/m2
13:09 94.1 °F 66.6 °F 29.97 in WSW 2.1 mph 6 mph 40.7% 0.00 in 972 W/m2
13:14 94 °F 65.7 °F 29.97 in WSW 1.4 mph 6 mph 39.6% 0.00 in 976 W/m2
13:19 94.3 °F 68.2 °F 29.97 in WNW 1.5 mph 7 mph 42.7% 0.00 in 974 W/m2
13:24 94.6 °F 67 °F 29.97 in WSW 1.8 mph 8 mph 40.6% 0.00 in 972 W/m2
13:29 94.6 °F 66.9 °F 29.97 in West 2.3 mph 8 mph 40.5% 0.00 in 962 W/m2
13:34 94.6 °F 66.9 °F 29.96 in West 1.9 mph 8 mph 40.5% 0.00 in 962 W/m2
13:39 94.3 °F 67.7 °F 29.96 in WSW 1.9 mph 10 mph 42.1% 0.00 in 963 W/m2
13:44 94 °F 67.3 °F 29.96 in WNW 3.4 mph 10 mph 41.8% 0.00 in 965 W/m2
13:49 94 °F 67.4 °F 29.96 in SW 3.2 mph 10 mph 41.9% 0.00 in 965 W/m2
13:54 94.2 °F 67.6 °F 29.96 in WSW 3.3 mph 13 mph 42.1% 0.00 in 954 W/m2
13:59 94.4 °F 67.4 °F 29.96 in WSW 1.6 mph 13 mph 41.5% 0.00 in 949 W/m2
14:04 94.4 °F 66.6 °F 29.96 in West 1.4 mph 13 mph 40.4% 0.00 in 946 W/m2
14:09 94.5 °F 67.2 °F 29.96 in WSW 2.3 mph 8 mph 41% 0.00 in 946 W/m2
14:14 94.7 °F 66.3 °F 29.96 in West 3.8 mph 9 mph 39.5% 0.00 in 933 W/m2
14:19 94.7 °F 66.2 °F 29.96 in WSW 3 mph 9 mph 39.4% 0.00 in 930 W/m2
14:24 94.6 °F 66.3 °F 29.96 in WNW 3 mph 9 mph 39.6% 0.00 in 923 W/m2
14:29 94.7 °F 66.1 °F 29.96 in West 1.7 mph 9 mph 39.3% 0.00 in 912 W/m2
14:34 94.8 °F 66.2 °F 29.96 in West 2.3 mph 9 mph 39.3% 0.00 in 916 W/m2
14:39 94.8 °F 66.8 °F 29.96 in West 1.4 mph 8 mph 40.1% 0.00 in 902 W/m2
14:44 95 °F 66.8 °F 29.96 in WSW 1.8 mph 9 mph 39.9% 0.00 in 896 W/m2
14:49 94.8 °F 65.4 °F 29.95 in West 2.7 mph 9 mph 38.2% 0.00 in 893 W/m2
14:54 94.7 °F 66.4 °F 29.95 in WSW 2.4 mph 11 mph 39.7% 0.00 in 881 W/m2
14:59 94.8 °F 66.2 °F 29.95 in WSW 2.1 mph 11 mph 39.2% 0.00 in 875 W/m2
15:04 94.9 °F 66.3 °F 29.95 in WSW 1.9 mph 11 mph 39.3% 0.00 in 863 W/m2
15:09 94.9 °F 65.8 °F 29.95 in WNW 2.3 mph 9 mph 38.5% 0.00 in 856 W/m2
15:14 95.1 °F 65.4 °F 29.95 in West 2.6 mph 9 mph 37.8% 0.00 in 851 W/m2
15:19 95.2 °F 65.4 °F 29.95 in WSW 3.3 mph 13 mph 37.7% 0.00 in 846 W/m2
15:24 95.1 °F 64.8 °F 29.95 in WSW 4.3 mph 13 mph 37.1% 0.00 in 816 W/m2
15:29 94.8 °F 64.7 °F 29.95 in West 4 mph 13 mph 37.2% 0.00 in 807 W/m2
15:34 94.7 °F 65.6 °F 29.95 in WNW 2.4 mph 13 mph 38.6% 0.00 in 803 W/m2
15:39 94.6 °F 65.2 °F 29.95 in West 1.7 mph 6 mph 38.1% 0.00 in 719 W/m2
15:44 94.7 °F 66.2 °F 29.95 in West 2.5 mph 9 mph 39.3% 0.00 in 694 W/m2
15:49 94.6 °F 65.5 °F 29.95 in West 2.8 mph 11 mph 38.5% 0.00 in 754 W/m2
15:54 94.4 °F 64.5 °F 29.95 in South 1.5 mph 11 mph 37.5% 0.00 in 601 W/m2
15:59 94.2 °F 65.1 °F 29.95 in WSW 2.3 mph 11 mph 38.5% 0.00 in 589 W/m2
16:00 94 °F 64.6 °F 29.94 in Calm   11 mph 38% 0.00 in 536 W/m2
16:09 93.7 °F 65.8 °F 29.95 in West 3.1 mph 14 mph 40.1% 0.00 in 650 W/m2
16:14 93.5 °F 65.4 °F 29.95 in SW 2.4 mph 14 mph 39.8% 0.00 in 362 W/m2
16:19 93.3 °F 65.8 °F 29.94 in WSW 1.8 mph 14 mph 40.7% 0.00 in 111 W/m2
16:24 93.1 °F 65.4 °F 29.94 in WSW 3.1 mph 14 mph 40.3% 0.00 in 104 W/m2
16:29 92.9 °F 63.8 °F 29.94 in WSW 5.5 mph 14 mph 38.3% 0.00 in 102 W/m2
16:34 92.7 °F 64.6 °F 29.95 in WSW 3.4 mph 14 mph 39.7% 0.00 in 114 W/m2
16:39 92.6 °F 64.2 °F 29.95 in WSW 3.1 mph 14 mph 39.2% 0.00 in 113 W/m2
16:44 92.5 °F 64.6 °F 29.94 in West 3.9 mph 14 mph 39.8% 0.00 in 104 W/m2
16:49 92.5 °F 64.8 °F 29.94 in WSW 3.1 mph 14 mph 40.1% 0.00 in 105 W/m2
16:54 92.5 °F 65.3 °F 29.94 in West 3.4 mph 14 mph 41% 0.00 in 109 W/m2
16:59 92.4 °F 65.7 °F 29.94 in WNW 2.5 mph 14 mph 41.6% 0.00 in 102 W/m2
17:04 92.2 °F 65.9 °F 29.94 in WNW 0.7 mph 14 mph 42.1% 0.00 in 107 W/m2
17:09 92 °F 66.2 °F 29.95 in WSW 1 mph 7 mph 42.8% 0.00 in 123 W/m2
17:14 91.9 °F 65.8 °F 29.94 in SW 2.3 mph 7 mph 42.3% 0.00 in 127 W/m2
17:19 92 °F 66.4 °F 29.94 in SW 0.7 mph 7 mph 43.1% 0.00 in 123 W/m2
17:24 92 °F 66.7 °F 29.94 in SW 0.4 mph 7 mph 43.6% 0.00 in 109 W/m2
17:29 92 °F 66.5 °F 29.94 in WSW 1 mph 7 mph 43.3% 0.00 in 91 W/m2
17:34 92 °F 66.5 °F 29.94 in WSW 1.1 mph 7 mph 43.2% 0.00 in 81 W/m2
17:39 92.1 °F 67.2 °F 29.94 in WSW 1.5 mph 9 mph 44.1% 0.00 in 72 W/m2
17:44 92.2 °F 67.6 °F 29.94 in WSW 1 mph 9 mph 44.7% 0.00 in 70 W/m2
17:49 92.2 °F 67.2 °F 29.94 in WSW 1.9 mph 9 mph 44% 0.00 in 62 W/m2
17:54 92.2 °F 67.4 °F 29.94 in WSW 2.6 mph 9 mph 44.4% 0.00 in 62 W/m2
17:59 92.1 °F 66.7 °F 29.94 in WSW 2.6 mph 9 mph 43.4% 0.00 in 63 W/m2
18:04 91.9 °F 66.5 °F 29.94 in West 2.2 mph 9 mph 43.4% 0.00 in 62 W/m2
18:09 91.7 °F 66.7 °F 29.94 in WSW 1.9 mph 7 mph 44% 0.00 in 53 W/m2
18:14 91.5 °F 66.3 °F 29.94 in SW 0.8 mph 7 mph 43.5% 0.00 in 49 W/m2
18:19 91.4 °F 66.8 °F 29.94 in WSW 1.5 mph 7 mph 44.6% 0.00 in 47 W/m2
18:24 91.2 °F 66.5 °F 29.94 in SW 0.8 mph 9 mph 44.5% 0.00 in 46 W/m2
18:29 91 °F 66.6 °F 29.94 in SW 0.8 mph 9 mph 44.9% 0.00 in 46 W/m2
18:34 90.8 °F 66.6 °F 29.94 in SW 0.6 mph 9 mph 45.1% 0.00 in 46 W/m2
18:39 90.6 °F 66.7 °F 29.94 in WSW 0.5 mph 5 mph 45.5% 0.00 in 47 W/m2
18:44 90.5 °F 67 °F 29.94 in WSW 0.8 mph 5 mph 46.2% 0.00 in 49 W/m2
18:49 90.3 °F 66.9 °F 29.94 in WSW 1 mph 6 mph 46.3% 0.00 in 53 W/m2
18:54 90.2 °F 67.1 °F 29.94 in WSW 0.6 mph 6 mph 46.8% 0.00 in 53 W/m2
18:59 90 °F 67.2 °F 29.94 in WSW 0.1 mph 6 mph 47.2% 0.00 in 53 W/m2
19:04 89.9 °F 67.4 °F 29.94 in Calm   6 mph 47.8% 0.00 in 49 W/m2
19:09 89.7 °F 67.5 °F 29.94 in WSW 0.1 mph 3 mph 48% 0.00 in 47 W/m2
19:14 89.6 °F 67.2 °F 29.94 in WSW 0.2 mph 3 mph 47.8% 0.00 in 47 W/m2
19:19 89.5 °F 67.5 °F 29.94 in WSW 0.1 mph 3 mph 48.4% 0.00 in 47 W/m2
19:24 89.4 °F 67.6 °F 29.94 in Calm   3 mph 48.8% 0.00 in 47 W/m2
19:29 89.2 °F 67.5 °F 29.94 in WSW 0.6 mph 4 mph 48.8% 0.00 in 47 W/m2
19:34 88.9 °F 67.3 °F 29.94 in SSW 1.1 mph 5 mph 49% 0.00 in 47 W/m2
19:37 88.5 °F 67.6 °F 29.94 in SSW 0.4 mph 5 mph 50.2% 0.00 in 46 W/m2
20:09 86 °F 68.8 °F 29.95 in Calm     56.5% 0.00 in 14 W/m2
20:14 85.7 °F 68.9 °F 29.95 in SSW 0.1 mph 2 mph 57.4% 0.00 in 9 W/m2
20:19 85.4 °F 69.2 °F 29.95 in SSW 0.5 mph 4 mph 58.5% 0.00 in 5 W/m2
20:24 85 °F 69.2 °F 29.95 in Calm   4 mph 59.3% 0.00 in 0 W/m2
20:29 84.7 °F 69.3 °F 29.95 in SSW 0.2 mph 4 mph 60% 0.00 in 0 W/m2
20:34 84.4 °F 69.3 °F 29.96 in Calm   4 mph 60.6% 0.00 in 0 W/m2
20:39 84.1 °F 69.2 °F 29.96 in Calm     61% 0.00 in 0 W/m2
20:44 83.8 °F 69.1 °F 29.96 in Calm     61.2% 0.00 in 0 W/m2
20:49 83.6 °F 69.2 °F 29.96 in Calm     62% 0.00 in 0 W/m2
20:54 83.4 °F 69.4 °F 29.97 in Calm     62.9% 0.00 in 0 W/m2
20:59 83.1 °F 69.2 °F 29.97 in Calm     63% 0.00 in 0 W/m2
21:04 82.9 °F 69.3 °F 29.97 in Calm     63.5% 0.00 in 0 W/m2
21:09 82.7 °F 69.3 °F 29.97 in Calm     64% 0.00 in 0 W/m2
21:14 82.4 °F 69.1 °F 29.98 in Calm     64.1% 0.00 in 0 W/m2
21:19 82.2 °F 69.3 °F 29.98 in Calm     65% 0.00 in 0 W/m2
21:24 82 °F 69.1 °F 29.98 in Calm     65% 0.00 in 0 W/m2
21:29 81.8 °F 68.9 °F 29.98 in Calm     65% 0.00 in 0 W/m2
21:34 81.5 °F 68.8 °F 29.98 in Calm     65.3% 0.00 in 0 W/m2
21:39 81.3 °F 68.8 °F 29.98 in Calm     65.9% 0.00 in 0 W/m2
21:44 81.1 °F 68.6 °F 29.98 in Calm     66% 0.00 in 0 W/m2
21:49 80.9 °F 68.5 °F 29.99 in Calm     66% 0.00 in 0 W/m2
21:54 80.7 °F 68.3 °F 29.99 in Calm     66% 0.00 in 0 W/m2
21:59 80.5 °F 68.3 °F 29.99 in Calm     66.4% 0.00 in 0 W/m2
22:04 80.3 °F 68.3 °F 29.99 in Calm     67% 0.00 in 0 W/m2
22:06 80.2 °F 68.2 °F 29.99 in Calm     67% 0.00 in 0 W/m2
22:30 79.1 °F 67.2 °F 30.00 in Calm     67% 0.00 in 0 W/m2
23:00 77.8 °F 66.8 °F 30.00 in Calm     69% 0.00 in 0 W/m2
23:30 76.7 °F 66.2 °F 30.01 in Calm     70% 0.00 in 0 W/m2
Hartford County Weather
Compliments of Weather Underground - 2 mb